Time;durP1;ratioP1;P1;durP2;ratioP2;P2;SDS_P1;SDS_P2;PMS_P1;PMS_P2;Temp;Humidity;BMP_temperature;BMP_pressure;BME280_temperature;BME280_humidity;BME280_pressure;Samples;Min_cycle;Max_cycle;Signal;HPM_P1;HPM_P2
2021/12/08 00:01:25;;;;;;;8.90;3.45;;;;;;;;;;5035340;28;20128;-75
2021/12/08 00:03:52;;;;;;;9.45;3.50;;;;;;;;;;5037340;28;20054;-73
2021/12/08 00:06:18;;;;;;;6.78;3.38;;;;;;;;;;5037748;28;20097;-73
2021/12/08 00:08:59;;;;;;;8.50;4.05;;;;;;;;;;5038288;28;20050;-73
2021/12/08 00:14:12;;;;;;;8.25;3.28;;;;;;;;;;5037765;28;20058;-74
2021/12/08 00:16:38;;;;;;;9.20;3.38;;;;;;;;;;5069420;28;20503;-74
2021/12/08 00:19:05;;;;;;;8.25;3.10;;;;;;;;;;5038065;28;20104;-73
2021/12/08 00:21:31;;;;;;;6.30;3.10;;;;;;;;;;5038568;28;20452;-73
2021/12/08 00:23:57;;;;;;;8.98;3.03;;;;;;;;;;5038386;28;20061;-73
2021/12/08 00:26:24;;;;;;;6.00;2.90;;;;;;;;;;5037347;28;20057;-73
2021/12/08 00:28:50;;;;;;;6.07;2.90;;;;;;;;;;5037944;28;20076;-73
2021/12/08 00:31:17;;;;;;;7.22;2.90;;;;;;;;;;5069243;28;20072;-72
2021/12/08 00:33:44;;;;;;;10.50;2.80;;;;;;;;;;5037833;28;20450;-73
2021/12/08 00:36:13;;;;;;;8.65;2.95;;;;;;;;;;5037543;28;20093;-75
2021/12/08 00:38:41;;;;;;;7.07;2.80;;;;;;;;;;5038013;28;20058;-73
2021/12/08 00:41:07;;;;;;;7.30;2.95;;;;;;;;;;5035837;28;20057;-73
2021/12/08 00:43:34;;;;;;;8.57;3.00;;;;;;;;;;5036605;28;20479;-76
2021/12/08 00:46:01;;;;;;;6.28;2.50;;;;;;;;;;5036311;28;20061;-73
2021/12/08 00:48:27;;;;;;;5.82;2.50;;;;;;;;;;5036083;28;20108;-73
2021/12/08 00:50:54;;;;;;;6.57;3.15;;;;;;;;;;5035011;28;20128;-73
2021/12/08 00:53:21;;;;;;;8.48;2.90;;;;;;;;;;5035925;28;20419;-73
2021/12/08 00:55:47;;;;;;;5.90;3.05;;;;;;;;;;5035128;28;20076;-73
2021/12/08 00:58:14;;;;;;;8.48;2.65;;;;;;;;;;5068547;28;20128;-73
2021/12/08 01:00:55;;;;;;;5.15;2.85;;;;;;;;;;5067172;28;20058;-73
2021/12/08 01:03:29;;;;;;;4.53;2.70;;;;;;;;;;5066205;28;20543;-73
2021/12/08 01:05:57;;;;;;;6.90;2.85;;;;;;;;;;5068769;28;20105;-73
2021/12/08 01:08:24;;;;;;;7.07;3.28;;;;;;;;;;5068817;28;20070;-74
2021/12/08 01:10:52;;;;;;;8.18;3.08;;;;;;;;;;5035873;28;20070;-73
2021/12/08 01:13:19;;;;;;;6.45;2.85;;;;;;;;;;5069194;28;20100;-73
2021/12/08 01:15:47;;;;;;;7.82;3.50;;;;;;;;;;5069144;28;20148;-72
2021/12/08 01:18:15;;;;;;;5.63;2.80;;;;;;;;;;5068811;28;20050;-73
2021/12/08 01:20:41;;;;;;;6.25;2.60;;;;;;;;;;5036249;28;20058;-74
2021/12/08 01:23:09;;;;;;;6.45;3.17;;;;;;;;;;5067971;28;20064;-73
2021/12/08 01:25:42;;;;;;;4.38;2.65;;;;;;;;;;5036028;28;20098;-73
2021/12/08 01:28:11;;;;;;;5.38;2.80;;;;;;;;;;5035751;28;20406;-73
2021/12/08 01:30:38;;;;;;;7.57;3.40;;;;;;;;;;5037476;28;20078;-74
2021/12/08 01:33:04;;;;;;;8.23;2.38;;;;;;;;;;5036181;28;20822;-73
2021/12/08 01:35:31;;;;;;;9.70;2.55;;;;;;;;;;5036563;28;20080;-73
2021/12/08 01:37:57;;;;;;;6.32;2.45;;;;;;;;;;5036207;28;20162;-73
2021/12/08 01:40:24;;;;;;;7.43;3.10;;;;;;;;;;5067611;28;20054;-73
2021/12/08 01:42:53;;;;;;;3.30;2.42;;;;;;;;;;5036387;28;20117;-72
2021/12/08 01:48:10;;;;;;;5.50;2.38;;;;;;;;;;5036723;28;20064;-73
2021/12/08 01:50:44;;;;;;;4.35;2.10;;;;;;;;;;5036219;28;20364;-73
2021/12/08 01:53:24;;;;;;;4.88;2.20;;;;;;;;;;5065689;28;20062;-73
2021/12/08 01:55:51;;;;;;;8.30;2.35;;;;;;;;;;5068893;28;20116;-73
2021/12/08 01:58:18;;;;;;;3.75;2.45;;;;;;;;;;5035191;28;20457;-73
2021/12/08 02:00:49;;;;;;;4.18;2.40;;;;;;;;;;5068612;28;20050;-73
2021/12/08 02:03:17;;;;;;;6.22;2.75;;;;;;;;;;5036430;28;20049;-73
2021/12/08 02:05:43;;;;;;;4.35;2.10;;;;;;;;;;5069009;28;20104;-73
2021/12/08 02:08:10;;;;;;;7.10;2.60;;;;;;;;;;5036692;28;20822;-73
2021/12/08 02:10:37;;;;;;;6.13;2.50;;;;;;;;;;5036881;28;20089;-73
2021/12/08 02:13:05;;;;;;;6.78;2.33;;;;;;;;;;5037417;28;20115;-72
2021/12/08 02:15:33;;;;;;;6.25;2.90;;;;;;;;;;5036704;28;20069;-73
2021/12/08 02:17:59;;;;;;;5.53;2.10;;;;;;;;;;5037754;28;20488;-72
2021/12/08 02:20:27;;;;;;;4.55;1.80;;;;;;;;;;5036313;28;20105;-73
2021/12/08 02:22:53;;;;;;;5.30;2.13;;;;;;;;;;5037743;28;20081;-73
2021/12/08 02:25:21;;;;;;;5.45;2.60;;;;;;;;;;5035829;28;20058;-74
2021/12/08 02:27:48;;;;;;;4.88;2.15;;;;;;;;;;5035693;28;20065;-73
2021/12/08 02:30:24;;;;;;;3.95;1.92;;;;;;;;;;5036431;28;20111;-73
2021/12/08 02:47:03;;;;;;;5.93;2.20;;;;;;;;;;5036730;28;20360;-73
2021/12/08 02:49:30;;;;;;;5.88;2.20;;;;;;;;;;5035465;28;20161;-73
2021/12/08 02:51:57;;;;;;;4.93;1.95;;;;;;;;;;5066749;28;20128;-73
2021/12/08 02:54:23;;;;;;;7.55;2.10;;;;;;;;;;5067875;28;20073;-73
2021/12/08 02:56:53;;;;;;;4.78;1.73;;;;;;;;;;5035940;28;20062;-73
2021/12/08 02:59:19;;;;;;;3.13;1.70;;;;;;;;;;5040176;28;20092;-73
2021/12/08 03:01:46;;;;;;;5.55;2.10;;;;;;;;;;5038699;28;20706;-73
2021/12/08 03:04:13;;;;;;;4.88;1.80;;;;;;;;;;5039375;28;20068;-73
2021/12/08 03:06:40;;;;;;;3.33;2.03;;;;;;;;;;5039173;28;20070;-73
2021/12/08 03:09:07;;;;;;;2.35;1.60;;;;;;;;;;5070886;28;20065;-73
2021/12/08 03:11:34;;;;;;;5.00;1.65;;;;;;;;;;5069627;28;20066;-74
2021/12/08 03:14:04;;;;;;;6.05;1.58;;;;;;;;;;5036483;28;20427;-73
2021/12/08 03:16:31;;;;;;;3.08;1.58;;;;;;;;;;5036767;28;20146;-73
2021/12/08 03:18:58;;;;;;;4.47;2.05;;;;;;;;;;5070562;28;20101;-73
2021/12/08 03:21:30;;;;;;;5.32;1.52;;;;;;;;;;5036592;28;20085;-73
2021/12/08 03:26:34;;;;;;;4.30;1.73;;;;;;;;;;5038677;28;20120;-73
2021/12/08 03:29:19;;;;;;;3.53;1.77;;;;;;;;;;5070560;28;20522;-73
2021/12/08 03:31:47;;;;;;;4.00;1.70;;;;;;;;;;5038513;28;20109;-74
2021/12/08 03:34:14;;;;;;;3.25;1.70;;;;;;;;;;5038598;28;20555;-75
2021/12/08 03:36:41;;;;;;;2.80;1.70;;;;;;;;;;5070672;28;20049;-73
2021/12/08 03:39:07;;;;;;;4.90;1.80;;;;;;;;;;5037244;28;20100;-73
2021/12/08 03:41:34;;;;;;;4.28;1.75;;;;;;;;;;5039002;28;20058;-73
2021/12/08 03:44:02;;;;;;;6.85;2.28;;;;;;;;;;5070522;28;20062;-74
2021/12/08 03:46:31;;;;;;;6.55;1.70;;;;;;;;;;5071153;28;20440;-73
2021/12/08 03:48:59;;;;;;;4.57;1.70;;;;;;;;;;5038407;28;20108;-73
2021/12/08 03:51:25;;;;;;;6.00;1.77;;;;;;;;;;5037678;28;20430;-74
2021/12/08 03:54:01;;;;;;;4.78;1.77;;;;;;;;;;5039957;28;20058;-73
2021/12/08 03:56:30;;;;;;;4.18;1.70;;;;;;;;;;5039706;28;20120;-73
2021/12/08 03:58:57;;;;;;;2.67;1.90;;;;;;;;;;5038287;28;20062;-73
2021/12/08 04:01:49;;;;;;;3.90;2.00;;;;;;;;;;5069719;28;20108;-73
2021/12/08 04:04:15;;;;;;;5.07;2.05;;;;;;;;;;5037971;28;20452;-73
2021/12/08 04:09:26;;;;;;;4.78;2.55;;;;;;;;;;5038178;28;20053;-73
2021/12/08 04:11:53;;;;;;;4.18;2.15;;;;;;;;;;5037897;28;20482;-73
2021/12/08 04:14:23;;;;;;;4.57;2.30;;;;;;;;;;5038074;28;20093;-74
2021/12/08 04:17:04;;;;;;;6.20;2.55;;;;;;;;;;5039098;28;20058;-73
2021/12/08 04:19:30;;;;;;;5.30;2.40;;;;;;;;;;5038215;28;20053;-73
2021/12/08 04:21:59;;;;;;;4.38;2.40;;;;;;;;;;5037242;28;20558;-73
2021/12/08 04:24:25;;;;;;;3.92;2.33;;;;;;;;;;5037225;28;20061;-74
2021/12/08 04:26:57;;;;;;;6.80;2.50;;;;;;;;;;5038559;28;20112;-74
2021/12/08 04:29:25;;;;;;;5.88;2.30;;;;;;;;;;5038372;28;20193;-73
2021/12/08 04:31:55;;;;;;;4.10;2.45;;;;;;;;;;5069560;28;20078;-73
2021/12/08 04:34:27;;;;;;;6.30;2.33;;;;;;;;;;5035858;28;20438;-73
2021/12/08 04:36:59;;;;;;;2.85;2.30;;;;;;;;;;5037594;28;20068;-73
2021/12/08 04:39:45;;;;;;;3.93;2.63;;;;;;;;;;5035926;28;20057;-73
2021/12/08 04:42:16;;;;;;;5.88;2.55;;;;;;;;;;5037608;28;20093;-73
2021/12/08 04:44:53;;;;;;;6.53;2.53;;;;;;;;;;5036961;28;20140;-73
2021/12/08 04:47:31;;;;;;;3.95;2.45;;;;;;;;;;5038137;28;20057;-74
2021/12/08 04:53:23;;;;;;;4.30;2.67;;;;;;;;;;5037920;28;20054;-73
2021/12/08 05:04:31;;;;;;;4.53;2.95;;;;;;;;;;5036807;28;20097;-73
2021/12/08 05:07:13;;;;;;;4.22;3.08;;;;;;;;;;5037496;28;20058;-74
2021/12/08 05:09:39;;;;;;;4.78;2.88;;;;;;;;;;5038493;28;20408;-73
2021/12/08 05:12:17;;;;;;;6.20;3.70;;;;;;;;;;5037355;28;20062;-74
2021/12/08 05:14:51;;;;;;;7.15;3.67;;;;;;;;;;5037163;28;20070;-73
2021/12/08 05:17:25;;;;;;;9.75;4.65;;;;;;;;;;5037203;28;20161;-73
2021/12/08 05:20:00;;;;;;;6.28;4.13;;;;;;;;;;5037054;28;20391;-73
2021/12/08 05:22:30;;;;;;;7.53;5.10;;;;;;;;;;5037154;28;20062;-73
2021/12/08 05:24:59;;;;;;;6.15;3.63;;;;;;;;;;5036387;28;20058;-74
2021/12/08 05:27:31;;;;;;;4.68;3.08;;;;;;;;;;5068961;28;20065;-74
2021/12/08 05:30:00;;;;;;;5.43;3.28;;;;;;;;;;5035384;28;20058;-73
2021/12/08 05:32:27;;;;;;;4.35;3.00;;;;;;;;;;5067317;28;20050;-74
2021/12/08 05:34:53;;;;;;;5.78;2.80;;;;;;;;;;5067609;28;20453;-73
2021/12/08 05:37:22;;;;;;;5.85;3.22;;;;;;;;;;5067391;28;20058;-73
2021/12/08 05:39:50;;;;;;;5.35;3.35;;;;;;;;;;5035407;28;20058;-74
2021/12/08 05:42:26;;;;;;;6.03;3.85;;;;;;;;;;5033969;28;20042;-74
2021/12/08 05:44:53;;;;;;;5.63;3.53;;;;;;;;;;5066586;28;20579;-75
2021/12/08 05:47:22;;;;;;;8.27;4.03;;;;;;;;;;5033780;28;20175;-75
2021/12/08 05:49:51;;;;;;;5.68;3.95;;;;;;;;;;5065319;28;20490;-74
2021/12/08 05:52:18;;;;;;;8.27;3.70;;;;;;;;;;5066308;28;20054;-73
2021/12/08 05:54:47;;;;;;;5.90;3.90;;;;;;;;;;5034867;28;20049;-73
2021/12/08 05:57:21;;;;;;;6.45;3.50;;;;;;;;;;5035889;28;20069;-73
2021/12/08 05:59:50;;;;;;;4.90;3.53;;;;;;;;;;5077840;28;20061;-75
2021/12/08 06:02:24;;;;;;;4.90;3.22;;;;;;;;;;5054990;28;20064;-74
2021/12/08 06:04:51;;;;;;;6.18;3.90;;;;;;;;;;5054339;28;20061;-73
2021/12/08 06:07:21;;;;;;;6.68;3.88;;;;;;;;;;5053172;28;20140;-74
2021/12/08 06:10:03;;;;;;;5.30;3.40;;;;;;;;;;5048009;28;20053;-73
2021/12/08 06:12:32;;;;;;;4.40;3.40;;;;;;;;;;5034473;28;20255;-74
2021/12/08 06:15:02;;;;;;;4.95;3.22;;;;;;;;;;5036948;28;20062;-74
2021/12/08 06:17:31;;;;;;;4.07;3.03;;;;;;;;;;5054696;28;20064;-75
2021/12/08 06:20:02;;;;;;;4.00;3.20;;;;;;;;;;5037615;28;20058;-74
2021/12/08 06:22:30;;;;;;;7.00;3.60;;;;;;;;;;5051058;28;20061;-74
2021/12/08 06:24:56;;;;;;;6.10;3.83;;;;;;;;;;5050031;28;20050;-74
2021/12/08 06:27:26;;;;;;;7.47;4.20;;;;;;;;;;5036208;28;20069;-74
2021/12/08 06:29:53;;;;;;;6.18;3.78;;;;;;;;;;5034902;28;20135;-75
2021/12/08 06:32:19;;;;;;;7.22;4.20;;;;;;;;;;5035984;28;20085;-75
2021/12/08 06:34:51;;;;;;;8.13;3.78;;;;;;;;;;5054663;28;20058;-74
2021/12/08 06:37:23;;;;;;;5.53;3.92;;;;;;;;;;5038084;28;20093;-74
2021/12/08 06:39:56;;;;;;;7.32;4.38;;;;;;;;;;5054973;28;20085;-75
2021/12/08 06:42:30;;;;;;;6.15;3.67;;;;;;;;;;5057782;28;20104;-75
2021/12/08 06:44:57;;;;;;;4.25;3.38;;;;;;;;;;5058993;28;20807;-75
2021/12/08 06:47:29;;;;;;;5.55;3.88;;;;;;;;;;5047856;28;20463;-74
2021/12/08 06:50:24;;;;;;;8.20;4.45;;;;;;;;;;5038615;28;20205;-74
2021/12/08 06:53:17;;;;;;;8.15;4.80;;;;;;;;;;5038016;28;20104;-75
2021/12/08 06:55:46;;;;;;;7.80;4.13;;;;;;;;;;5038519;28;20113;-74
2021/12/08 06:58:17;;;;;;;6.10;4.25;;;;;;;;;;5044263;28;20101;-74
2021/12/08 07:01:13;;;;;;;6.65;3.72;;;;;;;;;;5038242;28;20685;-75
2021/12/08 07:04:03;;;;;;;7.90;5.00;;;;;;;;;;5038017;28;20068;-74
2021/12/08 07:06:59;;;;;;;7.22;4.72;;;;;;;;;;5055769;28;20061;-74
2021/12/08 07:09:35;;;;;;;6.35;4.15;;;;;;;;;;5059992;28;20054;-75
2021/12/08 07:12:05;;;;;;;6.28;4.45;;;;;;;;;;5057402;28;20751;-75
2021/12/08 07:14:32;;;;;;;6.60;4.60;;;;;;;;;;5058150;28;20527;-74
2021/12/08 07:17:02;;;;;;;5.63;3.83;;;;;;;;;;5058105;28;20483;-73
2021/12/08 07:19:36;;;;;;;8.20;3.92;;;;;;;;;;5057762;28;20065;-73
2021/12/08 07:22:04;;;;;;;5.43;4.55;;;;;;;;;;5055656;28;20053;-74
2021/12/08 07:24:36;;;;;;;5.35;4.20;;;;;;;;;;5056123;28;20057;-72
2021/12/08 07:27:05;;;;;;;7.15;4.70;;;;;;;;;;5050575;28;20124;-72
2021/12/08 07:29:36;;;;;;;7.43;5.32;;;;;;;;;;5057890;28;20057;-72
2021/12/08 07:32:23;;;;;;;6.85;4.82;;;;;;;;;;5056983;28;20428;-74
2021/12/08 07:34:52;;;;;;;10.57;6.53;;;;;;;;;;5060060;28;20057;-73
2021/12/08 07:37:22;;;;;;;13.98;6.25;;;;;;;;;;5055956;28;20084;-73
2021/12/08 07:39:52;;;;;;;9.68;5.75;;;;;;;;;;5057187;28;20095;-72
2021/12/08 07:42:22;;;;;;;11.25;6.50;;;;;;;;;;5057025;28;20724;-73
2021/12/08 07:44:56;;;;;;;10.88;6.15;;;;;;;;;;5055415;28;20045;-73
2021/12/08 07:47:23;;;;;;;9.90;5.75;;;;;;;;;;5055745;28;20095;-73
2021/12/08 07:49:58;;;;;;;11.50;6.93;;;;;;;;;;5056999;28;20057;-73
2021/12/08 07:52:28;;;;;;;12.32;6.60;;;;;;;;;;5057428;28;20053;-74
2021/12/08 07:54:55;;;;;;;7.53;5.95;;;;;;;;;;5057504;28;20136;-75
2021/12/08 07:57:34;;;;;;;11.35;5.93;;;;;;;;;;5057697;28;20096;-74
2021/12/08 08:00:19;;;;;;;9.45;5.97;;;;;;;;;;5059066;28;20835;-74
2021/12/08 08:02:50;;;;;;;15.80;6.68;;;;;;;;;;5058557;28;20120;-75
2021/12/08 08:05:27;;;;;;;16.92;7.10;;;;;;;;;;5056556;28;20053;-73
2021/12/08 08:07:53;;;;;;;;;;;;;;;;;;5058348;28;20060;-73
2021/12/08 08:10:22;;;;;;;11.00;5.53;;;;;;;;;;5038866;28;46263;-72
2021/12/08 08:12:50;;;;;;;10.20;6.10;;;;;;;;;;5069776;28;20057;-73
2021/12/08 08:15:23;;;;;;;8.27;6.03;;;;;;;;;;5056195;28;20058;-72
2021/12/08 08:17:53;;;;;;;9.27;5.35;;;;;;;;;;5044882;28;20089;-73
2021/12/08 08:20:30;;;;;;;9.20;5.78;;;;;;;;;;5058766;28;20100;-72
2021/12/08 08:23:05;;;;;;;7.00;4.90;;;;;;;;;;5060143;28;20086;-72
2021/12/08 08:25:52;;;;;;;13.02;5.53;;;;;;;;;;5058822;28;20084;-73
2021/12/08 08:28:24;;;;;;;12.77;5.70;;;;;;;;;;5056955;28;20160;-73
2021/12/08 08:30:54;;;;;;;9.85;5.45;;;;;;;;;;5058328;28;20060;-75
2021/12/08 08:33:23;;;;;;;14.30;6.53;;;;;;;;;;5054874;28;20062;-74
2021/12/08 08:35:53;;;;;;;12.50;5.80;;;;;;;;;;5037897;28;20054;-73
2021/12/08 08:38:33;;;;;;;10.65;5.50;;;;;;;;;;5051796;28;20120;-74
2021/12/08 08:41:10;;;;;;;8.88;5.63;;;;;;;;;;5057391;28;20069;-72
2021/12/08 08:43:40;;;;;;;9.27;5.32;;;;;;;;;;5056032;28;20152;-72
2021/12/08 08:46:09;;;;;;;11.98;5.50;;;;;;;;;;5055223;28;20057;-73
2021/12/08 08:48:38;;;;;;;8.55;5.32;;;;;;;;;;5054480;28;20160;-73
2021/12/08 08:51:26;;;;;;;10.05;5.28;;;;;;;;;;5055068;28;20053;-73
2021/12/08 08:53:54;;;;;;;8.57;5.50;;;;;;;;;;5050773;28;20088;-72
2021/12/08 08:56:35;;;;;;;8.38;4.97;;;;;;;;;;5055866;28;20053;-74
2021/12/08 08:59:08;;;;;;;8.30;4.75;;;;;;;;;;5051324;28;20123;-72
2021/12/08 09:01:36;;;;;;;6.75;3.92;;;;;;;;;;5036324;28;20058;-72
2021/12/08 09:04:21;;;;;;;10.70;5.53;;;;;;;;;;5038091;28;20153;-73
2021/12/08 09:06:49;;;;;;;6.47;4.72;;;;;;;;;;5039758;28;20073;-74
2021/12/08 09:09:26;;;;;;;8.13;4.85;;;;;;;;;;5035358;28;20483;-72
2021/12/08 09:11:56;;;;;;;8.27;4.40;;;;;;;;;;5037170;28;20133;-74
2021/12/08 09:14:35;;;;;;;8.95;4.93;;;;;;;;;;5044646;28;20125;-73
2021/12/08 09:17:05;;;;;;;7.53;4.47;;;;;;;;;;5055663;28;20778;-72
2021/12/08 09:19:36;;;;;;;9.50;4.22;;;;;;;;;;5055147;28;20448;-74
2021/12/08 09:22:05;;;;;;;6.82;4.10;;;;;;;;;;5055354;28;20128;-73
2021/12/08 09:24:57;;;;;;;9.40;5.55;;;;;;;;;;5056722;28;20065;-73
2021/12/08 09:27:25;;;;;;;8.95;4.70;;;;;;;;;;5054719;28;20065;-73
2021/12/08 09:29:58;;;;;;;6.00;3.97;;;;;;;;;;5052637;28;20459;-73
2021/12/08 09:32:46;;;;;;;6.97;4.60;;;;;;;;;;5053785;28;20139;-73
2021/12/08 09:35:27;;;;;;;6.20;4.45;;;;;;;;;;5053532;28;20526;-73
2021/12/08 09:37:58;;;;;;;6.43;4.53;;;;;;;;;;5054629;28;20054;-73
2021/12/08 09:40:37;;;;;;;7.57;4.18;;;;;;;;;;5053995;28;20144;-73
2021/12/08 09:43:06;;;;;;;5.35;4.20;;;;;;;;;;5052470;28;20148;-73
2021/12/08 09:45:35;;;;;;;5.88;3.75;;;;;;;;;;5054228;28;20374;-74
2021/12/08 09:48:06;;;;;;;6.53;4.00;;;;;;;;;;5054430;28;20126;-73
2021/12/08 09:50:35;;;;;;;7.95;4.00;;;;;;;;;;5052258;28;20159;-74
2021/12/08 09:53:02;;;;;;;9.82;4.20;;;;;;;;;;5053866;28;20149;-73
2021/12/08 09:55:29;;;;;;;7.03;3.58;;;;;;;;;;5054569;28;20065;-73
2021/12/08 09:57:57;;;;;;;5.90;3.90;;;;;;;;;;5053488;28;20478;-72
2021/12/08 10:00:27;;;;;;;5.95;3.88;;;;;;;;;;5053906;28;20768;-72
2021/12/08 10:02:57;;;;;;;5.53;4.20;;;;;;;;;;5053477;28;20431;-72
2021/12/08 10:05:27;;;;;;;8.05;4.65;;;;;;;;;;5055179;28;20173;-78
2021/12/08 10:07:54;;;;;;;8.10;3.70;;;;;;;;;;5041520;28;20782;-72
2021/12/08 10:10:20;;;;;;;5.45;3.55;;;;;;;;;;5034229;28;20141;-74
2021/12/08 10:12:48;;;;;;;10.40;3.58;;;;;;;;;;5035465;28;20058;-74
2021/12/08 10:15:18;;;;;;;5.07;3.60;;;;;;;;;;5053023;28;20068;-72
2021/12/08 10:17:46;;;;;;;8.20;4.13;;;;;;;;;;5054815;28;20455;-73
2021/12/08 10:20:15;;;;;;;6.15;3.45;;;;;;;;;;5055769;28;20046;-73
2021/12/08 10:22:46;;;;;;;5.53;3.67;;;;;;;;;;5052940;28;20607;-76
2021/12/08 10:25:33;;;;;;;5.70;3.60;;;;;;;;;;5052474;28;20142;-73
2021/12/08 10:28:12;;;;;;;5.45;3.35;;;;;;;;;;5054543;28;20064;-73
2021/12/08 10:30:45;;;;;;;6.93;4.20;;;;;;;;;;5052496;28;20104;-72
2021/12/08 10:33:45;;;;;;;6.25;4.32;;;;;;;;;;5053162;28;20061;-73
2021/12/08 10:39:01;;;;;;;8.02;4.40;;;;;;;;;;5053995;28;20058;-72
2021/12/08 10:41:41;;;;;;;7.88;4.28;;;;;;;;;;5053335;28;20108;-73
2021/12/08 10:44:40;;;;;;;7.32;4.22;;;;;;;;;;5053211;28;20088;-73
2021/12/08 10:47:08;;;;;;;5.68;3.95;;;;;;;;;;5053049;28;20073;-73
2021/12/08 10:54:59;;;;;;;7.63;4.00;;;;;;;;;;5029948;28;20104;-75
2021/12/08 10:57:32;;;;;;;6.78;4.47;;;;;;;;;;5031165;28;20160;-74
2021/12/08 11:00:11;;;;;;;8.68;3.95;;;;;;;;;;5030060;28;20068;-75
2021/12/08 11:02:57;;;;;;;7.40;4.63;;;;;;;;;;5032522;28;20057;-75
2021/12/08 11:05:24;;;;;;;7.57;4.10;;;;;;;;;;5051464;28;20061;-74
2021/12/08 11:08:08;;;;;;;6.85;4.18;;;;;;;;;;5050257;28;20053;-74
2021/12/08 11:10:57;;;;;;;8.57;4.60;;;;;;;;;;5031216;28;20096;-74
2021/12/08 11:13:43;;;;;;;9.15;4.68;;;;;;;;;;5045780;28;20067;-75
2021/12/08 11:16:12;;;;;;;8.00;4.88;;;;;;;;;;5046542;28;20057;-75
2021/12/08 11:18:49;;;;;;;7.95;5.05;;;;;;;;;;5052615;28;20057;-73
2021/12/08 11:21:27;;;;;;;9.90;5.57;;;;;;;;;;5055310;28;20105;-75
2021/12/08 11:24:14;;;;;;;8.10;5.10;;;;;;;;;;5054256;28;20053;-74
2021/12/08 11:26:43;;;;;;;9.38;4.80;;;;;;;;;;5052308;28;20053;-74
2021/12/08 11:29:20;;;;;;;8.95;6.07;;;;;;;;;;5052836;28;20057;-74
2021/12/08 11:31:55;;;;;;;9.35;4.57;;;;;;;;;;5053835;28;20081;-73
2021/12/08 11:34:39;;;;;;;9.80;5.45;;;;;;;;;;5054594;28;20057;-74
2021/12/08 11:37:08;;;;;;;8.65;5.55;;;;;;;;;;5053933;28;20045;-73
2021/12/08 11:39:36;;;;;;;7.10;5.18;;;;;;;;;;5052676;28;20542;-73
2021/12/08 11:42:30;;;;;;;9.13;6.20;;;;;;;;;;5054290;28;20168;-74
2021/12/08 11:44:58;;;;;;;11.90;5.57;;;;;;;;;;5050742;28;20068;-74
2021/12/08 11:47:35;;;;;;;9.10;5.53;;;;;;;;;;5052324;28;20057;-74
2021/12/08 11:50:14;;;;;;;10.48;6.55;;;;;;;;;;5034522;28;20065;-73
2021/12/08 11:52:42;;;;;;;8.02;5.45;;;;;;;;;;5035536;28;20065;-74
2021/12/08 11:55:13;;;;;;;14.00;5.90;;;;;;;;;;5032612;28;20203;-74
2021/12/08 11:57:44;;;;;;;8.93;5.80;;;;;;;;;;5053862;28;20458;-74
2021/12/08 12:00:14;;;;;;;10.82;6.13;;;;;;;;;;5066161;28;20053;-71
2021/12/08 12:02:43;;;;;;;9.63;6.03;;;;;;;;;;5067275;28;20065;-72
2021/12/08 12:05:12;;;;;;;10.82;6.03;;;;;;;;;;5073368;28;20056;-72
2021/12/08 12:07:39;;;;;;;7.65;5.30;;;;;;;;;;5076426;28;20152;-74
2021/12/08 12:10:18;;;;;;;8.52;6.07;;;;;;;;;;5076048;28;20768;-74
2021/12/08 12:12:51;;;;;;;10.77;5.55;;;;;;;;;;5075216;28;20136;-74
2021/12/08 12:15:23;;;;;;;8.75;5.60;;;;;;;;;;5076803;28;20115;-74
2021/12/08 12:17:49;;;;;;;10.50;6.30;;;;;;;;;;5076985;28;20168;-75
2021/12/08 12:20:24;;;;;;;9.32;5.90;;;;;;;;;;5075781;28;20335;-74
2021/12/08 12:23:10;;;;;;;12.30;6.45;;;;;;;;;;5077790;28;20056;-74
2021/12/08 12:25:43;;;;;;;10.60;6.60;;;;;;;;;;5076120;28;20057;-73
2021/12/08 12:28:35;;;;;;;12.63;7.32;;;;;;;;;;5075539;28;20088;-74
2021/12/08 12:31:20;;;;;;;11.07;6.60;;;;;;;;;;5073722;28;20104;-73
2021/12/08 12:33:49;;;;;;;11.90;6.47;;;;;;;;;;5056022;28;20108;-73
2021/12/08 12:36:17;;;;;;;11.38;6.95;;;;;;;;;;5053902;28;20065;-73
2021/12/08 12:38:44;;;;;;;10.70;7.07;;;;;;;;;;5054167;28;20143;-74
2021/12/08 12:41:22;;;;;;;10.35;7.25;;;;;;;;;;5055973;28;20903;-73
2021/12/08 12:43:51;;;;;;;16.77;8.88;;;;;;;;;;5055850;28;20045;-73
2021/12/08 12:46:23;;;;;;;13.80;7.05;;;;;;;;;;5056924;28;20077;-73
2021/12/08 12:49:13;;;;;;;12.55;7.25;;;;;;;;;;5056012;28;20084;-73
2021/12/08 12:51:57;;;;;;;14.38;7.60;;;;;;;;;;5053532;28;20052;-75
2021/12/08 12:54:23;;;;;;;;;;;;;;;;;;5055203;28;20152;-75
2021/12/08 12:56:54;;;;;;;11.48;7.88;;;;;;;;;;5054629;28;47346;-74
2021/12/08 12:59:27;;;;;;;13.68;8.20;;;;;;;;;;5056601;28;20117;-74
2021/12/08 13:02:07;;;;;;;12.27;7.25;;;;;;;;;;5053989;28;20057;-74
2021/12/08 13:04:35;;;;;;;12.50;7.30;;;;;;;;;;5054565;28;20060;-73
2021/12/08 13:07:05;;;;;;;12.80;6.78;;;;;;;;;;5055815;28;20063;-75
2021/12/08 13:09:34;;;;;;;14.32;7.35;;;;;;;;;;5055412;28;20076;-74
2021/12/08 13:12:07;;;;;;;13.82;8.20;;;;;;;;;;5055182;28;20119;-74
2021/12/08 13:14:44;;;;;;;12.38;6.40;;;;;;;;;;5055901;28;20057;-74
2021/12/08 13:17:14;;;;;;;11.52;7.53;;;;;;;;;;5055553;28;20076;-74
2021/12/08 13:19:42;;;;;;;13.13;7.43;;;;;;;;;;5055355;28;20119;-74
2021/12/08 13:22:09;;;;;;;12.27;7.30;;;;;;;;;;5057881;28;20057;-74
2021/12/08 13:24:41;;;;;;;12.80;7.82;;;;;;;;;;5056352;28;20053;-74
2021/12/08 13:27:14;;;;;;;12.05;7.30;;;;;;;;;;5057274;28;20096;-74
2021/12/08 13:29:45;;;;;;;15.48;7.18;;;;;;;;;;5057338;28;20061;-75
2021/12/08 13:32:26;;;;;;;11.65;7.28;;;;;;;;;;5037503;28;20069;-74
2021/12/08 13:34:58;;;;;;;14.10;7.15;;;;;;;;;;5037047;28;20049;-75
2021/12/08 13:37:33;;;;;;;9.77;6.82;;;;;;;;;;5051530;28;20116;-75
2021/12/08 13:40:18;;;;;;;10.33;7.43;;;;;;;;;;5035708;28;20101;-74
2021/12/08 13:42:48;;;;;;;14.30;7.05;;;;;;;;;;5049197;28;20077;-72
2021/12/08 13:45:16;;;;;;;10.93;7.20;;;;;;;;;;5033215;28;20399;-73
2021/12/08 13:47:46;;;;;;;14.32;7.55;;;;;;;;;;5052280;28;20152;-72
2021/12/08 13:50:12;;;;;;;12.88;7.60;;;;;;;;;;5054530;28;20781;-73
2021/12/08 13:52:41;;;;;;;11.68;7.50;;;;;;;;;;5055232;28;20069;-76
2021/12/08 13:55:14;;;;;;;13.52;7.65;;;;;;;;;;5056124;28;20061;-73
2021/12/08 13:58:15;;;;;;;17.58;7.95;;;;;;;;;;5055971;28;20155;-73
2021/12/08 14:01:14;;;;;;;11.30;6.68;;;;;;;;;;5054612;28;20058;-73
2021/12/08 14:03:50;;;;;;;13.27;6.97;;;;;;;;;;5055185;28;20423;-73
2021/12/08 14:06:18;;;;;;;16.27;8.35;;;;;;;;;;5057382;28;20068;-73
2021/12/08 14:08:50;;;;;;;20.20;11.02;;;;;;;;;;5043023;28;20168;-72
2021/12/08 14:11:19;;;;;;;29.10;16.42;;;;;;;;;;5033879;28;20054;-73
2021/12/08 14:13:51;;;;;;;22.73;14.10;;;;;;;;;;5034259;28;20082;-72
2021/12/08 14:16:19;;;;;;;17.98;11.60;;;;;;;;;;5035885;28;20062;-73
2021/12/08 14:18:48;;;;;;;13.73;10.05;;;;;;;;;;5033035;28;20454;-73
2021/12/08 14:21:37;;;;;;;12.35;7.50;;;;;;;;;;5034120;28;20050;-74
2021/12/08 14:24:26;;;;;;;13.23;8.05;;;;;;;;;;5033624;28;20077;-74
2021/12/08 14:26:56;;;;;;;15.90;9.20;;;;;;;;;;5032757;28;20403;-73
2021/12/08 14:29:34;;;;;;;13.68;7.75;;;;;;;;;;5035372;28;20483;-73
2021/12/08 14:32:20;;;;;;;14.98;8.00;;;;;;;;;;5035787;28;20065;-74
2021/12/08 14:35:08;;;;;;;14.57;8.32;;;;;;;;;;5038949;28;20058;-73
2021/12/08 14:37:35;;;;;;;12.23;8.17;;;;;;;;;;5034797;28;20168;-74
2021/12/08 14:40:04;;;;;;;14.27;8.23;;;;;;;;;;5036114;28;20330;-74
2021/12/08 14:42:34;;;;;;;19.35;8.95;;;;;;;;;;5051158;28;20108;-74
2021/12/08 14:45:09;;;;;;;13.68;8.05;;;;;;;;;;5055674;28;20096;-73
2021/12/08 14:47:40;;;;;;;12.88;7.93;;;;;;;;;;5056457;28;20089;-73
2021/12/08 14:50:09;;;;;;;17.25;8.48;;;;;;;;;;5055603;28;20061;-74
2021/12/08 14:52:36;;;;;;;17.20;8.35;;;;;;;;;;5058723;28;20136;-75
2021/12/08 14:55:05;;;;;;;14.75;8.95;;;;;;;;;;5060614;28;20159;-75
2021/12/08 14:57:41;;;;;;;13.93;8.50;;;;;;;;;;5058147;28;20112;-74
2021/12/08 15:00:12;;;;;;;14.02;8.85;;;;;;;;;;5058769;28;20061;-74
2021/12/08 15:02:59;;;;;;;14.50;8.52;;;;;;;;;;5050594;28;20058;-74
2021/12/08 15:05:25;;;;;;;15.15;8.52;;;;;;;;;;5038214;28;20061;-74
2021/12/08 15:07:52;;;;;;;13.45;8.77;;;;;;;;;;5042772;28;21180;-74
2021/12/08 15:10:26;;;;;;;17.50;9.70;;;;;;;;;;5037722;28;20061;-74
2021/12/08 15:13:28;;;;;;;14.10;7.93;;;;;;;;;;5037798;28;20060;-73
2021/12/08 15:15:56;;;;;;;13.18;8.50;;;;;;;;;;5028659;28;20074;-73
2021/12/08 15:18:25;;;;;;;18.08;8.90;;;;;;;;;;5042052;28;20554;-74
2021/12/08 15:21:02;;;;;;;11.10;7.93;;;;;;;;;;5045907;28;20056;-74
2021/12/08 15:23:49;;;;;;;15.23;8.38;;;;;;;;;;5056263;28;20538;-74
2021/12/08 15:26:19;;;;;;;15.13;8.93;;;;;;;;;;5036141;28;20140;-74
2021/12/08 15:28:46;;;;;;;20.05;9.73;;;;;;;;;;5036902;28;20379;-74
2021/12/08 15:31:13;;;;;;;14.70;9.27;;;;;;;;;;5037211;28;20081;-74
2021/12/08 15:33:40;;;;;;;18.08;9.68;;;;;;;;;;5036154;28;20208;-74
2021/12/08 15:36:10;;;;;;;17.83;10.95;;;;;;;;;;5035613;28;20141;-74
2021/12/08 15:38:39;;;;;;;28.73;13.32;;;;;;;;;;5034070;28;20614;-74
2021/12/08 15:41:10;;;;;;;18.63;10.25;;;;;;;;;;5036047;28;20085;-75
2021/12/08 15:43:37;;;;;;;19.27;9.48;;;;;;;;;;5036718;28;20135;-74
2021/12/08 15:46:09;;;;;;;16.10;9.65;;;;;;;;;;5036904;28;20054;-74
2021/12/08 15:48:36;;;;;;;14.27;9.00;;;;;;;;;;5034582;28;20065;-75
2021/12/08 15:51:06;;;;;;;15.32;8.93;;;;;;;;;;5036425;28;20070;-74
2021/12/08 15:53:35;;;;;;;21.98;12.05;;;;;;;;;;5045905;28;20753;-75